createdAt,value
2019-04-07T00:00:22.193Z,9.23
2019-04-07T00:01:21.695Z,9.21
2019-04-07T00:02:22.377Z,9.19
2019-04-07T00:03:21.674Z,9.08
2019-04-07T00:04:21.664Z,9.06
2019-04-07T00:05:21.788Z,9.10
2019-04-07T00:06:21.644Z,9.11
2019-04-07T00:07:21.635Z,9.08
2019-04-07T00:08:21.717Z,9.13
2019-04-07T00:09:22.260Z,9.06
2019-04-07T00:10:21.618Z,9.11
2019-04-07T00:11:21.593Z,9.11
2019-04-07T00:12:21.583Z,9.10
2019-04-07T00:13:21.573Z,9.08
2019-04-07T00:14:21.563Z,9.16
2019-04-07T00:15:21.974Z,9.10
2019-04-07T00:16:21.587Z,9.14
2019-04-07T00:17:21.533Z,9.11
2019-04-07T00:18:21.757Z,9.10
2019-04-07T00:19:21.940Z,9.08
2019-04-07T00:20:22.052Z,9.10
2019-04-07T00:21:22.031Z,8.97
2019-04-07T00:22:21.482Z,9.00
2019-04-07T00:23:21.471Z,9.04
2019-04-07T00:24:21.882Z,9.06
2019-04-07T00:25:21.452Z,9.14
2019-04-07T00:26:21.590Z,9.00
2019-04-07T00:27:21.431Z,9.03
2019-04-07T00:28:21.470Z,9.11
2019-04-07T00:29:21.568Z,9.11
2019-04-07T00:30:21.400Z,9.16
2019-04-07T00:31:21.629Z,9.06
2019-04-07T00:32:21.380Z,9.00
2019-04-07T00:33:21.975Z,8.99
2019-04-07T00:34:22.092Z,8.99
2019-04-07T00:35:28.114Z,8.97
2019-04-07T00:36:21.918Z,9.03
2019-04-07T00:37:21.870Z,9.02
2019-04-07T00:38:21.320Z,9.03
2019-04-07T00:39:21.309Z,9.03
2019-04-07T00:40:22.294Z,8.94
2019-04-07T00:41:21.288Z,9.00
2019-04-07T00:42:21.279Z,9.03
2019-04-07T00:43:21.268Z,8.97
2019-04-07T00:44:21.267Z,8.94
2019-04-07T00:45:21.551Z,8.94
2019-04-07T00:46:21.801Z,8.95
2019-04-07T00:47:21.879Z,8.89
2019-04-07T00:48:21.224Z,8.85
2019-04-07T00:49:21.207Z,8.70
2019-04-07T00:50:21.967Z,8.74
2019-04-07T00:51:21.200Z,8.79
2019-04-07T00:52:21.502Z,8.79
2019-04-07T00:53:21.169Z,8.92
2019-04-07T00:54:21.491Z,8.92
2019-04-07T00:55:21.144Z,8.95
2019-04-07T00:56:21.134Z,8.97
2019-04-07T00:57:21.128Z,9.13
2019-04-07T00:58:21.456Z,9.22
2019-04-07T00:59:21.102Z,9.19
2019-04-07T01:00:21.848Z,9.16
2019-04-07T01:01:21.700Z,9.19
2019-04-07T01:02:21.235Z,9.21
2019-04-07T01:03:21.095Z,9.11
2019-04-07T01:04:21.142Z,9.18
2019-04-07T01:05:33.711Z,9.21
2019-04-07T01:06:21.030Z,9.14
2019-04-07T01:07:21.022Z,9.16
2019-04-07T01:08:21.541Z,9.13
2019-04-07T01:09:20.998Z,9.18
2019-04-07T01:10:21.606Z,9.22
2019-04-07T01:11:21.590Z,9.10
2019-04-07T01:12:21.391Z,9.10
2019-04-07T01:13:20.955Z,9.02
2019-04-07T01:14:21.420Z,9.03
2019-04-07T01:15:20.936Z,8.94
2019-04-07T01:16:20.924Z,8.97
2019-04-07T01:17:21.563Z,8.99
2019-04-07T01:18:20.904Z,8.89
2019-04-07T01:19:21.136Z,8.91
2019-04-07T01:20:20.883Z,8.89
2019-04-07T01:21:20.873Z,8.79
2019-04-07T01:22:20.868Z,8.73
2019-04-07T01:23:20.968Z,8.71
2019-04-07T01:24:21.044Z,8.64
2019-04-07T01:25:21.445Z,8.63
2019-04-07T01:26:20.821Z,8.61
2019-04-07T01:27:20.864Z,8.52
2019-04-07T01:28:20.888Z,8.51
2019-04-07T01:29:20.986Z,8.56
2019-04-07T01:30:21.369Z,8.41
2019-04-07T01:31:20.932Z,8.49
2019-04-07T01:32:21.279Z,8.42
2019-04-07T01:33:20.779Z,8.46
2019-04-07T01:34:20.749Z,8.36
2019-04-07T01:35:21.331Z,8.37
2019-04-07T01:36:20.715Z,8.44
2019-04-07T01:37:20.967Z,8.49
2019-04-07T01:38:21.235Z,8.49
2019-04-07T01:39:20.687Z,8.52
2019-04-07T01:40:21.053Z,8.53
2019-04-07T01:41:20.663Z,8.55
2019-04-07T01:42:21.319Z,8.55
2019-04-07T01:43:20.643Z,8.55
2019-04-07T01:44:20.632Z,8.56
2019-04-07T01:45:20.661Z,8.51
2019-04-07T01:46:20.679Z,8.45
2019-04-07T01:47:21.045Z,8.42
2019-04-07T01:48:20.589Z,8.44
2019-04-07T01:49:20.663Z,8.36
2019-04-07T01:50:21.102Z,8.36
2019-04-07T01:51:21.119Z,8.36
2019-04-07T01:52:21.163Z,8.34
2019-04-07T01:53:21.255Z,8.42
2019-04-07T01:54:20.778Z,8.30
2019-04-07T01:55:20.515Z,8.24
2019-04-07T01:56:20.794Z,8.20
2019-04-07T01:57:20.956Z,8.19
2019-04-07T01:58:20.483Z,8.27
2019-04-07T01:59:20.918Z,8.24
2019-04-07T02:00:20.468Z,8.20
2019-04-07T02:01:20.866Z,8.27
2019-04-07T02:02:20.452Z,8.24
2019-04-07T02:03:20.436Z,8.20
2019-04-07T02:04:20.478Z,8.26
2019-04-07T02:05:20.898Z,8.24
2019-04-07T02:06:21.039Z,8.19
2019-04-07T02:07:20.387Z,8.15
2019-04-07T02:08:20.941Z,8.24
2019-04-07T02:09:20.363Z,8.10
2019-04-07T02:10:20.913Z,8.15
2019-04-07T02:11:21.129Z,8.19
2019-04-07T02:12:20.329Z,8.13
2019-04-07T02:13:20.732Z,8.15
2019-04-07T02:14:20.308Z,8.18
2019-04-07T02:15:20.296Z,8.09
2019-04-07T02:16:20.421Z,8.12
2019-04-07T02:17:20.852Z,8.15
2019-04-07T02:18:20.264Z,8.03
2019-04-07T02:19:20.475Z,8.05
2019-04-07T02:20:20.760Z,8.03
2019-04-07T02:21:20.717Z,8.05
2019-04-07T02:22:20.219Z,8.00
2019-04-07T02:23:20.729Z,7.91
2019-04-07T02:24:20.340Z,7.94
2019-04-07T02:25:20.740Z,7.87
2019-04-07T02:26:20.180Z,7.88
2019-04-07T02:27:20.560Z,7.83
2019-04-07T02:28:20.394Z,7.83
2019-04-07T02:29:20.397Z,7.77
2019-04-07T02:30:20.132Z,7.69
2019-04-07T02:31:21.121Z,7.69
2019-04-07T02:32:20.107Z,7.70
2019-04-07T02:33:20.098Z,7.73
2019-04-07T02:34:20.901Z,7.83
2019-04-07T02:35:20.888Z,7.72
2019-04-07T02:36:25.904Z,7.77
2019-04-07T02:37:20.600Z,7.72
2019-04-07T02:38:20.999Z,7.75
2019-04-07T02:39:20.033Z,7.66
2019-04-07T02:40:20.019Z,7.70
2019-04-07T02:41:20.010Z,7.69
2019-04-07T02:42:20.274Z,7.54
2019-04-07T02:43:19.987Z,7.56
2019-04-07T02:44:19.995Z,7.50
2019-04-07T02:45:19.964Z,7.43
2019-04-07T02:46:20.372Z,7.58
2019-04-07T02:47:20.039Z,7.48
2019-04-07T02:48:20.055Z,7.53
2019-04-07T02:49:20.038Z,7.54
2019-04-07T02:50:19.915Z,7.57
2019-04-07T02:51:20.192Z,7.56
2019-04-07T02:52:19.897Z,7.57
2019-04-07T02:53:19.877Z,7.45
2019-04-07T02:54:20.663Z,7.58
2019-04-07T02:55:19.855Z,7.69
2019-04-07T02:56:20.816Z,7.79
2019-04-07T02:57:20.643Z,7.83
2019-04-07T02:58:20.065Z,7.79
2019-04-07T02:59:19.920Z,7.75
2019-04-07T03:00:20.455Z,7.80
2019-04-07T03:01:20.125Z,7.83
2019-04-07T03:02:20.744Z,7.70
2019-04-07T03:03:20.108Z,7.77
2019-04-07T03:04:20.533Z,7.73
2019-04-07T03:05:19.886Z,7.70
2019-04-07T03:06:34.873Z,7.72
2019-04-07T03:07:20.055Z,7.72
2019-04-07T03:08:19.721Z,7.69
2019-04-07T03:09:20.479Z,7.69
2019-04-07T03:10:19.693Z,7.63
2019-04-07T03:11:20.018Z,7.69
2019-04-07T03:12:19.670Z,7.73
2019-04-07T03:13:19.658Z,7.76
2019-04-07T03:14:19.838Z,7.70
2019-04-07T03:15:19.636Z,7.75
2019-04-07T03:16:19.694Z,7.72
2019-04-07T03:17:20.145Z,7.82
2019-04-07T03:18:20.152Z,7.73
2019-04-07T03:19:19.594Z,7.67
2019-04-07T03:20:19.583Z,7.57
2019-04-07T03:21:19.826Z,7.67
2019-04-07T03:22:20.603Z,7.48
2019-04-07T03:23:20.411Z,7.57
2019-04-07T03:24:19.562Z,7.57
2019-04-07T03:25:20.587Z,7.51
2019-04-07T03:26:20.421Z,7.47
2019-04-07T03:27:19.506Z,7.53
2019-04-07T03:28:19.796Z,7.51
2019-04-07T03:29:20.254Z,7.42
2019-04-07T03:30:20.795Z,7.58
2019-04-07T03:31:21.835Z,7.53
2019-04-07T03:32:23.380Z,7.57
2019-04-07T03:33:22.773Z,7.48
2019-04-07T03:34:20.790Z,7.53
2019-04-07T03:35:22.804Z,7.47
2019-04-07T03:36:21.565Z,7.45
2019-04-07T03:37:33.128Z,7.45
2019-04-07T03:38:20.427Z,7.33
2019-04-07T03:39:20.347Z,7.33
2019-04-07T03:40:20.010Z,7.35
2019-04-07T03:41:19.652Z,7.29
2019-04-07T03:42:19.343Z,7.36
2019-04-07T03:43:19.703Z,7.28
2019-04-07T03:44:19.321Z,7.38
2019-04-07T03:45:20.319Z,7.35
2019-04-07T03:46:19.301Z,7.29
2019-04-07T03:47:20.111Z,7.24
2019-04-07T03:48:19.294Z,7.32
2019-04-07T03:49:20.052Z,7.29
2019-04-07T03:50:19.305Z,7.33
2019-04-07T03:51:20.163Z,7.17
2019-04-07T03:52:19.584Z,7.14
2019-04-07T03:53:20.108Z,7.18
2019-04-07T03:54:19.213Z,7.23
2019-04-07T03:55:20.377Z,7.18
2019-04-07T03:56:20.120Z,7.07
2019-04-07T03:57:19.670Z,7.06
2019-04-07T03:58:19.564Z,7.10
2019-04-07T03:59:20.033Z,7.07
2019-04-07T04:00:19.143Z,7.07
2019-04-07T04:01:19.133Z,6.95
2019-04-07T04:02:19.675Z,6.97
2019-04-07T04:03:19.368Z,6.99
2019-04-07T04:04:19.132Z,6.96
2019-04-07T04:05:19.103Z,7.03
2019-04-07T04:06:19.400Z,6.92
2019-04-07T04:07:29.351Z,6.92
2019-04-07T04:08:19.053Z,6.92
2019-04-07T04:09:19.042Z,6.77
2019-04-07T04:10:19.340Z,6.84
2019-04-07T04:11:19.021Z,6.84
2019-04-07T04:12:19.010Z,6.81
2019-04-07T04:13:19.998Z,6.87
2019-04-07T04:14:18.986Z,6.92
2019-04-07T04:15:18.975Z,6.96
2019-04-07T04:16:19.949Z,6.95
2019-04-07T04:17:19.430Z,6.99
2019-04-07T04:18:18.942Z,7.03
2019-04-07T04:19:18.949Z,7.13
2019-04-07T04:20:19.734Z,7.10
2019-04-07T04:21:19.786Z,7.20
2019-04-07T04:22:18.896Z,7.21
2019-04-07T04:23:19.768Z,7.28
2019-04-07T04:24:19.879Z,7.20
2019-04-07T04:25:19.170Z,7.33
2019-04-07T04:26:18.852Z,7.28
2019-04-07T04:27:18.877Z,7.32
2019-04-07T04:28:19.371Z,7.32
2019-04-07T04:29:18.931Z,7.33
2019-04-07T04:30:19.004Z,7.33
2019-04-07T04:31:19.585Z,7.23
2019-04-07T04:32:18.967Z,7.29
2019-04-07T04:33:18.769Z,7.28
2019-04-07T04:34:19.172Z,7.21
2019-04-07T04:35:18.998Z,7.28
2019-04-07T04:36:18.926Z,7.35
2019-04-07T04:37:34.561Z,7.32
2019-04-07T04:38:18.713Z,7.23
2019-04-07T04:39:20.935Z,7.32
2019-04-07T04:40:19.113Z,7.25
2019-04-07T04:41:18.961Z,7.33
2019-04-07T04:42:18.679Z,7.24
2019-04-07T04:43:18.666Z,7.20
2019-04-07T04:44:18.786Z,7.21
2019-04-07T04:45:18.638Z,7.18
2019-04-07T04:46:18.726Z,7.21
2019-04-07T04:47:19.105Z,7.17
2019-04-07T04:48:19.653Z,7.23
2019-04-07T04:49:19.021Z,7.15
2019-04-07T04:50:18.584Z,7.17
2019-04-07T04:51:18.566Z,7.24
2019-04-07T04:52:18.581Z,7.18
2019-04-07T04:53:18.616Z,7.25
2019-04-07T04:54:19.303Z,7.36
2019-04-07T04:55:18.901Z,7.35
2019-04-07T04:56:18.698Z,7.35
2019-04-07T04:57:18.495Z,7.40
2019-04-07T04:58:19.311Z,7.45
2019-04-07T04:59:18.472Z,7.50
2019-04-07T05:00:18.764Z,7.48
2019-04-07T05:01:18.724Z,7.58
2019-04-07T05:02:18.960Z,7.51
2019-04-07T05:03:19.391Z,7.57
2019-04-07T05:04:18.422Z,7.54
2019-04-07T05:05:18.403Z,7.69
2019-04-07T05:06:18.392Z,7.58
2019-04-07T05:07:19.019Z,7.54
2019-04-07T05:08:18.382Z,7.54
2019-04-07T05:09:18.357Z,7.53
2019-04-07T05:10:19.249Z,7.66
2019-04-07T05:11:18.875Z,7.53
2019-04-07T05:12:18.337Z,7.58
2019-04-07T05:13:18.312Z,7.66
2019-04-07T05:14:18.301Z,7.70
2019-04-07T05:15:18.288Z,7.67
2019-04-07T05:16:18.500Z,7.69
2019-04-07T05:17:18.269Z,7.69
2019-04-07T05:18:18.256Z,7.63
2019-04-07T05:19:18.257Z,7.70
2019-04-07T05:20:18.358Z,7.72
2019-04-07T05:21:18.579Z,7.72
2019-04-07T05:22:18.212Z,7.70
2019-04-07T05:23:18.224Z,7.76
2019-04-07T05:24:18.189Z,7.76
2019-04-07T05:25:18.446Z,7.69
2019-04-07T05:26:18.167Z,7.69
2019-04-07T05:27:18.619Z,7.63
2019-04-07T05:28:18.144Z,7.60
2019-04-07T05:29:18.675Z,7.73
2019-04-07T05:30:18.121Z,7.69
2019-04-07T05:31:18.720Z,7.69
2019-04-07T05:32:18.099Z,7.73
2019-04-07T05:33:18.089Z,7.70
2019-04-07T05:34:20.507Z,7.79
2019-04-07T05:35:18.738Z,7.67
2019-04-07T05:36:18.054Z,7.70
2019-04-07T05:37:18.769Z,7.75
2019-04-07T05:38:18.031Z,7.79
2019-04-07T05:39:18.022Z,7.85
2019-04-07T05:40:18.010Z,7.79
2019-04-07T05:41:18.365Z,7.73
2019-04-07T05:42:17.987Z,7.83
2019-04-07T05:43:18.488Z,7.80
2019-04-07T05:44:17.964Z,7.85
2019-04-07T05:45:17.953Z,7.88
2019-04-07T05:46:17.943Z,7.90
2019-04-07T05:47:17.933Z,7.88
2019-04-07T05:48:20.229Z,7.95
2019-04-07T05:49:18.752Z,7.91
2019-04-07T05:50:17.898Z,7.91
2019-04-07T05:51:17.890Z,7.94
2019-04-07T05:52:18.116Z,7.93
2019-04-07T05:53:17.866Z,7.94
2019-04-07T05:54:19.760Z,7.97
2019-04-07T05:55:20.605Z,7.93
2019-04-07T05:56:17.832Z,7.88
2019-04-07T05:57:18.556Z,7.88
2019-04-07T05:58:18.037Z,7.91
2019-04-07T05:59:17.802Z,7.90
2019-04-07T06:00:18.709Z,7.91
2019-04-07T06:01:21.712Z,7.98
2019-04-07T06:02:17.902Z,8.01
2019-04-07T06:03:17.788Z,7.94
2019-04-07T06:04:19.177Z,7.98
2019-04-07T06:05:18.612Z,7.97
2019-04-07T06:06:19.148Z,8.05
2019-04-07T06:07:17.713Z,8.05
2019-04-07T06:08:26.864Z,8.15
2019-04-07T06:09:18.918Z,8.19
2019-04-07T06:10:18.329Z,8.24
2019-04-07T06:11:17.669Z,8.24
2019-04-07T06:12:17.659Z,8.41
2019-04-07T06:13:17.685Z,8.45
2019-04-07T06:14:17.638Z,8.58
2019-04-07T06:15:21.604Z,8.55
2019-04-07T06:16:19.953Z,8.61
2019-04-07T06:17:17.622Z,8.71
2019-04-07T06:18:17.595Z,8.79
2019-04-07T06:19:18.227Z,8.91
2019-04-07T06:20:18.042Z,8.92
2019-04-07T06:21:17.565Z,9.11
2019-04-07T06:22:19.830Z,9.16
2019-04-07T06:23:17.767Z,9.26
2019-04-07T06:24:18.379Z,9.28
2019-04-07T06:25:17.523Z,9.39
2019-04-07T06:26:17.633Z,9.36
2019-04-07T06:27:18.122Z,9.47
2019-04-07T06:28:19.121Z,9.56
2019-04-07T06:29:18.247Z,9.61
2019-04-07T06:30:17.610Z,9.61
2019-04-07T06:31:17.463Z,9.65
2019-04-07T06:32:17.772Z,9.69
2019-04-07T06:33:17.539Z,9.83
2019-04-07T06:34:17.432Z,9.74
2019-04-07T06:35:18.174Z,9.79
2019-04-07T06:36:18.760Z,9.89
2019-04-07T06:37:17.795Z,9.92
2019-04-07T06:38:17.723Z,9.94
2019-04-07T06:39:19.237Z,9.95
2019-04-07T06:40:20.315Z,9.99
2019-04-07T06:41:17.446Z,10.07
2019-04-07T06:42:17.600Z,10.17
2019-04-07T06:43:18.633Z,10.12
2019-04-07T06:44:21.118Z,10.17
2019-04-07T06:45:20.575Z,10.17
2019-04-07T06:46:17.504Z,10.20
2019-04-07T06:47:17.970Z,10.33
2019-04-07T06:48:17.554Z,10.33
2019-04-07T06:49:17.291Z,10.41
2019-04-07T06:50:17.932Z,10.41
2019-04-07T06:51:17.392Z,10.46
2019-04-07T06:52:17.278Z,10.46
2019-04-07T06:53:19.952Z,10.56
2019-04-07T06:54:21.025Z,10.57
2019-04-07T06:55:17.895Z,10.69
2019-04-07T06:56:17.558Z,10.68
2019-04-07T06:57:17.436Z,10.72
2019-04-07T06:58:17.541Z,10.60
2019-04-07T06:59:17.679Z,10.68
2019-04-07T07:00:21.515Z,10.69
2019-04-07T07:01:17.174Z,10.71
2019-04-07T07:02:17.478Z,10.76
2019-04-07T07:03:17.155Z,10.86
2019-04-07T07:04:17.872Z,10.87
2019-04-07T07:05:17.810Z,10.99
2019-04-07T07:06:18.390Z,11.04
2019-04-07T07:07:18.947Z,11.07
2019-04-07T07:08:21.611Z,11.15
2019-04-07T07:09:17.103Z,11.29
2019-04-07T07:10:26.134Z,11.25
2019-04-07T07:11:27.575Z,11.32
2019-04-07T07:12:22.644Z,11.29
2019-04-07T07:13:28.398Z,11.37
2019-04-07T07:14:31.208Z,11.40
2019-04-07T07:15:17.050Z,11.40
2019-04-07T07:16:17.449Z,11.52
2019-04-07T07:17:19.507Z,11.54
2019-04-07T07:18:20.001Z,11.63
2019-04-07T07:19:17.016Z,11.80
2019-04-07T07:20:17.648Z,11.94
2019-04-07T07:21:16.999Z,12.09
2019-04-07T07:22:17.503Z,12.27
2019-04-07T07:23:17.009Z,12.29
2019-04-07T07:24:22.495Z,12.42
2019-04-07T07:25:17.063Z,12.57
2019-04-07T07:26:17.188Z,12.73
2019-04-07T07:27:17.570Z,12.82
2019-04-07T07:28:17.338Z,12.93
2019-04-07T07:29:18.038Z,13.09
2019-04-07T07:30:18.370Z,13.16
2019-04-07T07:31:18.150Z,13.47
2019-04-07T07:32:17.017Z,13.57
2019-04-07T07:33:16.914Z,13.63
2019-04-07T07:34:17.662Z,13.85
2019-04-07T07:35:16.910Z,13.96
2019-04-07T07:36:18.355Z,14.12
2019-04-07T07:37:16.900Z,14.32
2019-04-07T07:38:16.894Z,14.44
2019-04-07T07:39:17.606Z,14.84
2019-04-07T07:40:18.344Z,14.96
2019-04-07T07:41:19.193Z,15.03
2019-04-07T07:42:19.102Z,15.24
2019-04-07T07:43:17.494Z,15.43
2019-04-07T07:44:17.578Z,15.55
2019-04-07T07:45:17.494Z,15.68
2019-04-07T07:46:20.597Z,15.80
2019-04-07T07:47:17.655Z,15.88
2019-04-07T07:48:17.484Z,15.95
2019-04-07T07:49:16.873Z,15.97
2019-04-07T07:50:16.871Z,15.95
2019-04-07T07:51:16.870Z,15.97
2019-04-07T07:52:19.666Z,16.12
2019-04-07T07:53:16.933Z,16.20
2019-04-07T07:54:17.294Z,16.26
2019-04-07T07:55:17.269Z,16.41
2019-04-07T07:56:17.023Z,16.60
2019-04-07T07:57:21.021Z,16.74
2019-04-07T07:58:16.871Z,16.90
2019-04-07T07:59:17.749Z,17.09
2019-04-07T08:00:17.003Z,17.26
2019-04-07T08:01:17.750Z,17.38
2019-04-07T08:02:19.454Z,17.52
2019-04-07T08:03:18.921Z,17.76
2019-04-07T08:04:17.375Z,17.76
2019-04-07T08:05:17.153Z,17.68
2019-04-07T08:06:17.335Z,17.94
2019-04-07T08:07:16.892Z,18.13
2019-04-07T08:08:16.887Z,18.20
2019-04-07T08:09:21.441Z,18.37
2019-04-07T08:10:17.096Z,18.38
2019-04-07T08:11:17.643Z,18.49
2019-04-07T08:12:17.353Z,18.34
2019-04-07T08:13:16.942Z,18.31
2019-04-07T08:14:18.335Z,18.33
2019-04-07T08:15:17.056Z,18.16
2019-04-07T08:16:17.399Z,18.43
2019-04-07T08:17:17.288Z,18.66
2019-04-07T08:18:19.570Z,18.81
2019-04-07T08:19:16.918Z,18.84
2019-04-07T08:20:17.477Z,19.00
2019-04-07T08:21:19.099Z,19.16
2019-04-07T08:22:27.553Z,19.30
2019-04-07T08:23:16.930Z,19.40
2019-04-07T08:24:17.667Z,19.16
2019-04-07T08:25:20.385Z,18.92
2019-04-07T08:26:16.942Z,18.84
2019-04-07T08:27:16.944Z,18.68
2019-04-07T08:28:19.565Z,18.60
2019-04-07T08:29:17.008Z,18.44
2019-04-07T08:30:17.384Z,18.37
2019-04-07T08:31:20.538Z,18.50
2019-04-07T08:32:17.637Z,18.50
2019-04-07T08:33:16.963Z,18.47
2019-04-07T08:34:17.818Z,18.59
2019-04-07T08:35:17.622Z,18.81
2019-04-07T08:36:17.217Z,18.84
2019-04-07T08:37:17.873Z,18.77
2019-04-07T08:38:19.954Z,18.90
2019-04-07T08:39:23.765Z,18.95
2019-04-07T08:40:16.985Z,19.16
2019-04-07T08:41:16.998Z,19.36
2019-04-07T08:42:18.698Z,19.47
2019-04-07T08:43:20.055Z,19.47
2019-04-07T08:44:17.160Z,19.70
2019-04-07T08:45:17.889Z,19.70
2019-04-07T08:46:17.010Z,19.89
2019-04-07T08:47:21.796Z,19.88
2019-04-07T08:48:19.321Z,19.91
2019-04-07T08:49:17.035Z,20.06
2019-04-07T08:50:17.028Z,19.99
2019-04-07T08:51:17.033Z,19.92
2019-04-07T08:52:17.440Z,20.16
2019-04-07T08:53:17.046Z,20.26
2019-04-07T08:54:18.453Z,20.43
2019-04-07T08:55:20.039Z,20.52
2019-04-07T08:56:17.819Z,20.51
2019-04-07T08:57:17.065Z,20.55
2019-04-07T08:58:24.999Z,20.43
2019-04-07T08:59:17.309Z,20.56
2019-04-07T09:00:17.538Z,20.63
2019-04-07T09:01:20.301Z,20.56
2019-04-07T09:02:18.967Z,20.39
2019-04-07T09:03:17.205Z,20.22
2019-04-07T09:04:17.853Z,20.25
2019-04-07T09:05:20.250Z,20.34
2019-04-07T09:06:17.338Z,20.48
2019-04-07T09:07:17.533Z,20.63
2019-04-07T09:08:17.929Z,20.60
2019-04-07T09:09:17.136Z,20.39
2019-04-07T09:10:20.428Z,20.77
2019-04-07T09:11:19.996Z,20.99
2019-04-07T09:12:17.506Z,20.99
2019-04-07T09:13:17.474Z,20.96
2019-04-07T09:14:17.623Z,20.95
2019-04-07T09:15:17.820Z,21.11
2019-04-07T09:16:17.753Z,21.02
2019-04-07T09:17:29.319Z,21.05
2019-04-07T09:18:18.072Z,21.27
2019-04-07T09:19:17.200Z,21.32
2019-04-07T09:20:17.926Z,21.05
2019-04-07T09:21:19.948Z,21.05
2019-04-07T09:22:20.075Z,21.11
2019-04-07T09:23:17.581Z,21.32
2019-04-07T09:24:17.699Z,21.46
2019-04-07T09:25:17.241Z,21.57
2019-04-07T09:26:19.922Z,21.07
2019-04-07T09:27:20.974Z,21.03
2019-04-07T09:28:19.944Z,20.90
2019-04-07T09:29:17.302Z,20.78
2019-04-07T09:30:17.275Z,20.97
2019-04-07T09:31:17.590Z,21.09
2019-04-07T09:32:17.841Z,21.05
2019-04-07T09:33:18.073Z,21.12
2019-04-07T09:34:20.081Z,21.09
2019-04-07T09:35:17.731Z,21.06
2019-04-07T09:36:17.995Z,21.14
2019-04-07T09:37:18.488Z,21.33
2019-04-07T09:38:17.716Z,21.42
2019-04-07T09:39:17.652Z,21.02
2019-04-07T09:40:17.802Z,20.81
2019-04-07T09:41:21.665Z,20.90
2019-04-07T09:42:18.609Z,21.03
2019-04-07T09:43:18.910Z,21.03
2019-04-07T09:44:17.408Z,20.99
2019-04-07T09:45:17.459Z,21.15
2019-04-07T09:46:18.003Z,21.17
2019-04-07T09:47:17.904Z,21.32
2019-04-07T09:48:19.878Z,21.52
2019-04-07T09:49:17.399Z,21.73
2019-04-07T09:50:17.477Z,21.80
2019-04-07T09:51:17.687Z,21.85
2019-04-07T09:52:17.855Z,21.95
2019-04-07T09:53:18.895Z,21.80
2019-04-07T09:54:20.648Z,22.00
2019-04-07T09:55:17.854Z,22.07
2019-04-07T09:56:17.448Z,22.04
2019-04-07T09:57:17.989Z,21.89
2019-04-07T09:58:18.202Z,22.02
2019-04-07T09:59:19.249Z,22.04
2019-04-07T10:00:17.479Z,22.06
2019-04-07T10:01:20.017Z,22.18
2019-04-07T10:02:17.494Z,22.33
2019-04-07T10:03:18.122Z,22.14
2019-04-07T10:04:17.510Z,22.14
2019-04-07T10:05:17.518Z,22.15
2019-04-07T10:06:17.526Z,22.22
2019-04-07T10:07:18.308Z,22.22
2019-04-07T10:08:18.937Z,22.23
2019-04-07T10:09:18.306Z,22.07
2019-04-07T10:10:17.558Z,21.67
2019-04-07T10:11:17.565Z,21.88
2019-04-07T10:12:18.437Z,22.08
2019-04-07T10:13:17.837Z,22.00
2019-04-07T10:14:18.416Z,22.10
2019-04-07T10:15:17.749Z,22.18
2019-04-07T10:16:17.605Z,22.32
2019-04-07T10:17:17.760Z,22.41
2019-04-07T10:18:17.922Z,22.45
2019-04-07T10:19:18.021Z,22.45
2019-04-07T10:20:17.962Z,22.55
2019-04-07T10:21:18.317Z,22.65
2019-04-07T10:22:17.656Z,22.55
2019-04-07T10:23:17.689Z,22.65
2019-04-07T10:24:18.490Z,22.72
2019-04-07T10:25:17.682Z,22.84
2019-04-07T10:26:17.934Z,22.87
2019-04-07T10:27:18.707Z,22.94
2019-04-07T10:28:17.781Z,23.15
2019-04-07T10:29:17.734Z,23.32
2019-04-07T10:30:17.727Z,23.13
2019-04-07T10:31:19.770Z,22.91
2019-04-07T10:32:17.900Z,23.03
2019-04-07T10:33:17.993Z,23.25
2019-04-07T10:34:18.246Z,23.18
2019-04-07T10:35:17.934Z,23.20
2019-04-07T10:36:17.780Z,23.12
2019-04-07T10:37:17.789Z,23.08
2019-04-07T10:38:17.799Z,23.37
2019-04-07T10:39:18.622Z,23.12
2019-04-07T10:40:21.824Z,22.81
2019-04-07T10:41:18.379Z,22.75
2019-04-07T10:42:18.060Z,22.57
2019-04-07T10:43:18.489Z,22.39
2019-04-07T10:44:17.925Z,22.38
2019-04-07T10:45:17.860Z,22.69
2019-04-07T10:46:17.962Z,22.84
2019-04-07T10:47:18.380Z,23.02
2019-04-07T10:48:17.991Z,22.76
2019-04-07T10:49:17.895Z,22.72
2019-04-07T10:50:17.997Z,22.81
2019-04-07T10:51:18.456Z,22.91
2019-04-07T10:52:18.021Z,23.10
2019-04-07T10:53:17.929Z,23.17
2019-04-07T10:54:17.938Z,23.32
2019-04-07T10:55:17.946Z,22.88
2019-04-07T10:56:18.741Z,22.57
2019-04-07T10:57:18.816Z,22.15
2019-04-07T10:58:18.002Z,21.96
2019-04-07T10:59:17.994Z,22.25
2019-04-07T11:00:17.988Z,22.33
2019-04-07T11:01:17.996Z,22.35
2019-04-07T11:02:18.145Z,22.23
2019-04-07T11:03:18.610Z,22.43
2019-04-07T11:04:18.020Z,22.41
2019-04-07T11:05:18.578Z,22.69
2019-04-07T11:06:18.142Z,22.76
2019-04-07T11:07:18.777Z,22.83
2019-04-07T11:08:18.250Z,22.80
2019-04-07T11:09:18.168Z,22.75
2019-04-07T11:10:29.866Z,23.09
2019-04-07T11:11:18.100Z,23.24
2019-04-07T11:12:18.082Z,23.31
2019-04-07T11:13:18.580Z,23.18
2019-04-07T11:14:18.500Z,22.96
2019-04-07T11:15:18.466Z,22.76
2019-04-07T11:16:18.566Z,22.78
2019-04-07T11:17:18.121Z,22.75
2019-04-07T11:18:19.064Z,22.75
2019-04-07T11:19:18.138Z,22.75
2019-04-07T11:20:18.145Z,22.69
2019-04-07T11:21:18.176Z,23.05
2019-04-07T11:22:18.775Z,23.03
2019-04-07T11:23:18.168Z,23.23
2019-04-07T11:24:18.748Z,22.87
2019-04-07T11:25:18.362Z,22.81
2019-04-07T11:26:18.195Z,22.68
2019-04-07T11:27:19.049Z,22.30
2019-04-07T11:28:18.207Z,22.11
2019-04-07T11:29:18.218Z,22.29
2019-04-07T11:30:18.370Z,22.17
2019-04-07T11:31:18.850Z,22.32
2019-04-07T11:32:18.236Z,22.63
2019-04-07T11:33:18.336Z,22.85
2019-04-07T11:34:18.250Z,22.91
2019-04-07T11:35:18.258Z,22.69
2019-04-07T11:36:21.278Z,22.62
2019-04-07T11:37:18.935Z,22.59
2019-04-07T11:38:19.116Z,22.66
2019-04-07T11:39:18.936Z,22.83
2019-04-07T11:40:18.292Z,22.78
2019-04-07T11:41:21.536Z,23.03
2019-04-07T11:42:18.475Z,23.28
2019-04-07T11:43:18.315Z,23.47
2019-04-07T11:44:20.180Z,23.59
2019-04-07T11:45:18.333Z,23.51
2019-04-07T11:46:18.827Z,23.36
2019-04-07T11:47:18.577Z,23.15
2019-04-07T11:48:18.350Z,23.37
2019-04-07T11:49:19.398Z,23.55
2019-04-07T11:50:18.914Z,23.58
2019-04-07T11:51:18.522Z,23.74
2019-04-07T11:52:18.379Z,23.34
2019-04-07T11:53:18.386Z,23.18
2019-04-07T11:54:18.393Z,23.23
2019-04-07T11:55:18.494Z,22.93
2019-04-07T11:56:18.407Z,22.70
2019-04-07T11:57:18.414Z,22.91
2019-04-07T11:58:25.976Z,22.84
2019-04-07T11:59:18.441Z,22.73
2019-04-07T12:00:18.469Z,22.69
2019-04-07T12:01:18.770Z,22.68
2019-04-07T12:02:19.789Z,22.72
2019-04-07T12:03:19.194Z,22.84
2019-04-07T12:04:18.578Z,23.06
2019-04-07T12:05:18.467Z,23.24
2019-04-07T12:06:19.180Z,22.80
2019-04-07T12:07:20.376Z,22.60
2019-04-07T12:08:18.550Z,22.38
2019-04-07T12:09:18.488Z,22.08
2019-04-07T12:10:18.494Z,22.23
2019-04-07T12:11:18.498Z,22.18
2019-04-07T12:12:18.504Z,22.32
2019-04-07T12:13:18.509Z,22.62
2019-04-07T12:14:19.169Z,23.31
2019-04-07T12:15:22.041Z,23.62
2019-04-07T12:16:18.591Z,23.77
2019-04-07T12:17:18.819Z,23.83
2019-04-07T12:18:19.256Z,24.06
2019-04-07T12:19:22.790Z,24.08
2019-04-07T12:20:18.548Z,23.86
2019-04-07T12:21:22.618Z,23.73
2019-04-07T12:22:18.554Z,23.54
2019-04-07T12:23:23.385Z,23.71
2019-04-07T12:24:18.947Z,24.06
2019-04-07T12:25:18.982Z,24.16
2019-04-07T12:26:18.926Z,24.21
2019-04-07T12:27:21.211Z,24.06
2019-04-07T12:28:19.445Z,24.23
2019-04-07T12:29:18.857Z,24.54
2019-04-07T12:30:21.399Z,24.78
2019-04-07T12:31:18.619Z,24.86
2019-04-07T12:32:19.123Z,25.16
2019-04-07T12:33:19.056Z,25.22
2019-04-07T12:34:18.982Z,25.32
2019-04-07T12:35:19.496Z,25.50
2019-04-07T12:36:18.624Z,24.69
2019-04-07T12:37:18.833Z,24.35
2019-04-07T12:38:19.391Z,23.92
2019-04-07T12:39:19.031Z,23.43
2019-04-07T12:40:22.460Z,23.46
2019-04-07T12:41:21.730Z,23.62
2019-04-07T12:42:18.654Z,23.65
2019-04-07T12:43:18.655Z,23.41
2019-04-07T12:44:19.108Z,23.71
2019-04-07T12:45:19.095Z,23.54
2019-04-07T12:46:19.416Z,23.59
2019-04-07T12:47:19.209Z,23.28
2019-04-07T12:48:19.500Z,23.86
2019-04-07T12:49:18.919Z,24.18
2019-04-07T12:50:19.723Z,24.81
2019-04-07T12:51:19.870Z,24.81
2019-04-07T12:52:18.768Z,24.76
2019-04-07T12:53:18.690Z,24.33
2019-04-07T12:54:18.989Z,24.50
2019-04-07T12:55:19.296Z,25.11
2019-04-07T12:56:18.700Z,25.47
2019-04-07T12:57:18.847Z,25.65
2019-04-07T12:58:19.209Z,25.90
2019-04-07T12:59:19.274Z,25.84
2019-04-07T13:00:19.165Z,25.36
2019-04-07T13:01:19.796Z,25.11
2019-04-07T13:02:20.045Z,25.14
2019-04-07T13:03:18.722Z,24.93
2019-04-07T13:04:19.028Z,24.57
2019-04-07T13:05:18.731Z,24.38